This is the latest recevied weather packets stored in our database for station/object N1PRS-9. If no packets are shown the sender has not sent any weather packets the latest 10 day(s).
| Time | Temp. | Humidity | Pressure | Rain* | Wind** | Luminosity | Snow |
|---|---|---|---|---|---|---|---|
| 1777488632 | 19.44° C | 51% | 1013 hPa | 0 mm | - | 339 W/m² | - |
| 1777488345 | 20° C | 52% | 1013.1 hPa | 0 mm | - | 327 W/m² | - |
| 1777487733 | 20° C | 51% | 1013.2 hPa | 0 mm | - | 464 W/m² | - |
| 1777485651 | 20° C | 51% | 1013.5 hPa | 0 mm | - | 570 W/m² | - |
| 1777485333 | 20° C | 49% | 1013.5 hPa | 0 mm | - | 670 W/m² | - |
| 1777484746 | 20° C | 50% | 1013.8 hPa | 0 mm | - | 589 W/m² | - |
| 1777483533 | 19.44° C | 51% | 1014.1 hPa | 0 mm | - | 659 W/m² | - |
| 1777481733 | 18.33° C | 51% | 1014.2 hPa | 0 mm | - | 510 W/m² | - |
| 1777480243 | 17.78° C | 53% | 1014.5 hPa | 0 mm | - | 524 W/m² | - |
| 1777477835 | 16.67° C | 58% | 1014.6 hPa | 0 mm | - | 415 W/m² | - |
| 1777474844 | 14.44° C | 62% | 1015 hPa | 0 mm | - | 197 W/m² | - |
| 1777472159 | 12.78° C | 65% | 1015.5 hPa | 0 mm | - | 190 W/m² | - |
| 1777471243 | 11.67° C | 67% | 1015.8 hPa | 0 mm | - | 93 W/m² | - |
| 1777470932 | 11.67° C | 67% | 1016 hPa | 0 mm | - | 65 W/m² | - |
| 1777470633 | 11.67° C | 69% | 1016 hPa | 0 mm | - | 51 W/m² | - |
| 1777470353 | 11.11° C | 70% | 1016.2 hPa | 0 mm | - | 49 W/m² | - |
| 1777465533 | 8.33° C | 78% | 1016.9 hPa | 0 mm | - | 28 W/m² | - |
| 1777464048 | 7.78° C | 81% | 1017.6 hPa | 0 mm | - | 26 W/m² | - |
| 1777462532 | 6.67° C | 84% | 1017.7 hPa | 0 mm | - | 23 W/m² | - |
| 1777461933 | 6.67° C | 85% | 1017.8 hPa | 0 mm | - | 21 W/m² | - |
| 1777460730 | 6.67° C | 84% | 1017.6 hPa | 0 mm | - | 16 W/m² | - |
| 1777458034 | 6.67° C | 82% | 1017.6 hPa | 0 mm | - | 9 W/m² | - |
| 1777455042 | 6.67° C | 81% | 1017.6 hPa | 0 mm | - | 0 W/m² | - |
| 1777453258 | 6.67° C | 79% | 1017.4 hPa | 0 mm | - | 0 W/m² | - |
| 1777446944 | 8.33° C | 75% | 1017.5 hPa | 0 mm | - | 0 W/m² | - |
* Rain latest hour (hover to see other rain measurements)
** Current wind speed in m/s (hover to see current wind gust speed)